Time;durP1;ratioP1;P1;durP2;ratioP2;P2;SDS_P1;SDS_P2;PMS_P1;PMS_P2;Temp;Humidity;BMP_temperature;BMP_pressure;BME280_temperature;BME280_humidity;BME280_pressure;Samples;Min_cycle;Max_cycle;Signal;HPM_P1;HPM_P2
2023/06/16 00:00:43;;;;;;;7.13;3.97;;;;;;;-148.88;67.39;-17125.47;4976497;28;20481;-85
2023/06/16 00:03:09;;;;;;;6.45;4.13;;;;;;;-148.88;66.42;-17125.47;4976193;28;20019;-86
2023/06/16 00:05:35;;;;;;;7.03;4.50;;;;;;;-148.88;66.16;-17125.47;4975995;28;20042;-86
2023/06/16 00:08:02;;;;;;;5.10;4.18;;;;;;;-148.88;65.26;-17125.47;4976449;28;20378;-84
2023/06/16 00:10:28;;;;;;;6.28;4.13;;;;;;;-148.88;65.93;-17125.47;4976367;28;20037;-86
2023/06/16 00:12:53;;;;;;;7.65;4.53;;;;;;;-148.88;66.29;-17125.47;4976903;28;20113;-85
2023/06/16 00:15:20;;;;;;;6.95;4.40;;;;;;;-148.88;67.06;-17125.47;4974787;28;20121;-85
2023/06/16 00:17:46;;;;;;;5.93;4.05;;;;;;;-148.88;67.07;-17125.47;4976276;28;20027;-85
2023/06/16 00:20:15;;;;;;;6.20;4.28;;;;;;;-148.88;67.48;-17125.47;4975593;28;20022;-85
2023/06/16 00:22:41;;;;;;;6.93;4.13;;;;;;;-148.88;66.88;-17125.47;4975760;28;20481;-85
2023/06/16 00:25:08;;;;;;;6.68;4.78;;;;;;;-148.88;66.69;-17125.47;4974750;28;20077;-85
2023/06/16 00:27:34;;;;;;;7.88;4.50;;;;;;;-148.88;67.44;-17125.47;4974556;28;20031;-84
2023/06/16 00:29:59;;;;;;;6.28;4.30;;;;;;;-148.88;66.70;-17125.47;4975307;28;20073;-85
2023/06/16 00:32:25;;;;;;;6.15;4.18;;;;;;;-148.88;66.87;-17125.47;4976232;28;20026;-86
2023/06/16 00:34:50;;;;;;;5.45;4.25;;;;;;;-148.88;66.91;-17125.47;4976168;28;20134;-86
2023/06/16 00:37:15;;;;;;;6.05;4.18;;;;;;;-148.88;67.66;-17125.47;4977311;28;20393;-86
2023/06/16 00:39:41;;;;;;;7.25;4.30;;;;;;;-148.88;67.62;-17125.47;4975938;28;20481;-86
2023/06/16 00:42:08;;;;;;;6.75;4.60;;;;;;;-148.88;69.24;-17125.47;4975650;28;20067;-85
2023/06/16 00:44:33;;;;;;;6.40;4.50;;;;;;;-148.88;69.49;-17125.47;4975952;28;20607;-85
2023/06/16 00:46:59;;;;;;;6.82;4.32;;;;;;;-148.88;69.13;-17125.47;4975404;28;20091;-85
2023/06/16 00:49:24;;;;;;;7.72;4.80;;;;;;;-148.88;69.36;-17125.47;4975631;28;20026;-85
2023/06/16 00:51:52;;;;;;;9.35;4.43;;;;;;;-148.88;70.34;-17125.47;4975022;28;20019;-86
2023/06/16 00:54:17;;;;;;;9.88;5.10;;;;;;;-148.88;71.42;-17125.47;4973941;28;20474;-85
2023/06/16 00:56:43;;;;;;;7.05;5.00;;;;;;;-148.88;72.50;-17125.47;4975217;28;20035;-85
2023/06/16 00:59:09;;;;;;;6.90;4.70;;;;;;;-148.88;72.52;-17125.47;4974965;28;20026;-85
2023/06/16 01:01:34;;;;;;;8.52;4.88;;;;;;;-148.88;72.38;-17125.47;4973941;28;20037;-86
2023/06/16 01:04:00;;;;;;;8.48;5.25;;;;;;;-148.88;71.91;-17125.47;4975099;28;20477;-85
2023/06/16 01:06:41;;;;;;;8.27;4.88;;;;;;;-148.88;72.40;-17125.47;4974818;28;20027;-85
2023/06/16 01:09:25;;;;;;;6.25;4.68;;;;;;;-148.88;71.78;-17125.47;4975079;28;20455;-86
2023/06/16 01:12:21;;;;;;;9.15;5.05;;;;;;;-148.88;72.30;-17125.47;4975676;28;20066;-86
2023/06/16 01:14:51;;;;;;;8.10;4.70;;;;;;;-148.88;72.17;-17125.47;4975113;28;20022;-85
2023/06/16 01:17:21;;;;;;;6.70;4.65;;;;;;;-148.88;71.49;-17125.47;4975094;28;20031;-86
2023/06/16 01:19:53;;;;;;;6.70;5.03;;;;;;;-148.88;72.03;-17125.47;4974028;28;20033;-86
2023/06/16 01:22:39;;;;;;;6.75;5.18;;;;;;;-148.88;71.91;-17125.47;4974471;28;20027;-85
2023/06/16 01:25:07;;;;;;;7.25;4.75;;;;;;;-148.88;72.34;-17125.47;4975393;28;20053;-85
2023/06/16 01:27:33;;;;;;;7.00;4.55;;;;;;;-148.88;72.51;-17125.47;4974934;28;20077;-86
2023/06/16 01:30:01;;;;;;;8.30;4.97;;;;;;;-148.88;72.33;-17125.47;4976092;28;20034;-85
2023/06/16 01:32:27;;;;;;;9.43;4.90;;;;;;;-148.88;72.01;-17125.47;4974924;28;20039;-85
2023/06/16 01:34:54;;;;;;;5.90;5.00;;;;;;;-148.88;73.14;-17125.47;4974498;28;20026;-85
2023/06/16 01:37:20;;;;;;;6.97;5.38;;;;;;;-148.88;73.61;-17125.47;4974625;28;20023;-85
2023/06/16 01:39:47;;;;;;;6.32;4.90;;;;;;;-148.88;73.44;-17125.47;4974344;28;20042;-85
2023/06/16 01:42:14;;;;;;;9.93;5.68;;;;;;;-148.88;73.74;-17125.47;4977301;28;20027;-86
2023/06/16 01:44:42;;;;;;;6.93;5.00;;;;;;;-148.88;73.61;-17125.47;4978485;28;20109;-86
2023/06/16 01:47:08;;;;;;;7.28;4.68;;;;;;;-148.88;73.22;-17125.47;4978997;28;20022;-87
2023/06/16 01:49:33;;;;;;;6.32;5.22;;;;;;;-148.88;73.69;-17125.47;4978374;28;20117;-86
2023/06/16 01:52:00;;;;;;;6.28;5.15;;;;;;;-148.88;74.17;-17125.47;4978801;28;20030;-86
2023/06/16 01:54:25;;;;;;;7.43;5.07;;;;;;;-148.88;74.54;-17125.47;4979318;28;20023;-86
2023/06/16 01:56:51;;;;;;;5.43;4.80;;;;;;;-148.88;74.81;-17125.47;4977700;28;20033;-86
2023/06/16 01:59:17;;;;;;;7.93;5.55;;;;;;;-148.88;75.03;-17125.47;4977824;28;20034;-85
2023/06/16 02:01:49;;;;;;;6.50;5.03;;;;;;;-148.88;75.14;-17125.47;4978943;28;20034;-86
2023/06/16 02:04:17;;;;;;;8.13;4.72;;;;;;;-148.88;74.69;-17125.47;4979066;28;20026;-86
2023/06/16 02:06:49;;;;;;;8.13;5.85;;;;;;;-148.88;74.55;-17125.47;4978756;28;20044;-86
2023/06/16 02:09:16;;;;;;;6.90;5.15;;;;;;;-148.88;74.67;-17125.47;4980231;28;20023;-86
2023/06/16 02:11:43;;;;;;;6.43;5.53;;;;;;;-148.88;74.62;-17125.47;4978160;28;20042;-86
2023/06/16 02:14:09;;;;;;;5.97;5.22;;;;;;;-148.88;74.98;-17125.47;4977365;28;20401;-86
2023/06/16 02:16:42;;;;;;;8.00;5.63;;;;;;;-148.88;75.15;-17125.47;4978177;28;20513;-86
2023/06/16 02:19:09;;;;;;;11.00;5.97;;;;;;;-148.88;75.21;-17125.47;4977986;28;20093;-86
2023/06/16 02:21:36;;;;;;;6.75;5.38;;;;;;;-148.88;74.80;-17125.47;4977957;28;20031;-86
2023/06/16 02:24:02;;;;;;;8.98;6.30;;;;;;;-148.88;75.03;-17125.47;4977192;28;20449;-86
2023/06/16 02:26:27;;;;;;;10.23;6.22;;;;;;;-148.88;75.38;-17125.47;4978161;28;20073;-86
2023/06/16 02:28:53;;;;;;;9.35;5.95;;;;;;;-148.88;75.71;-17125.47;4978109;28;20031;-86
2023/06/16 02:31:18;;;;;;;9.90;6.85;;;;;;;-148.88;75.89;-17125.47;4976541;28;20485;-86
2023/06/16 02:33:44;;;;;;;9.52;6.60;;;;;;;-148.88;76.44;-17125.47;4977917;28;20110;-86
2023/06/16 02:36:10;;;;;;;10.32;6.80;;;;;;;-148.88;76.93;-17125.47;4977758;28;20436;-86
2023/06/16 02:38:36;;;;;;;9.60;6.65;;;;;;;-148.88;77.98;-17125.47;4977422;28;20027;-86
2023/06/16 02:41:01;;;;;;;8.07;6.40;;;;;;;-148.88;78.19;-17125.47;4977423;28;20035;-85
2023/06/16 02:43:26;;;;;;;8.18;6.30;;;;;;;-148.88;78.21;-17125.47;4977596;28;20058;-86
2023/06/16 02:45:51;;;;;;;8.93;6.40;;;;;;;-148.88;77.92;-17125.47;4977376;28;20038;-86
2023/06/16 02:48:17;;;;;;;6.95;6.25;;;;;;;-148.88;78.13;-17125.47;4977741;28;20023;-86
2023/06/16 02:50:42;;;;;;;8.48;6.88;;;;;;;-148.88;78.41;-17125.47;4976965;28;20034;-86
2023/06/16 02:53:08;;;;;;;9.38;6.85;;;;;;;-148.88;78.79;-17125.47;4977019;28;20030;-86
2023/06/16 02:55:35;;;;;;;9.13;7.25;;;;;;;-148.88;78.84;-17125.47;4977320;28;20031;-86
2023/06/16 02:58:01;;;;;;;9.45;7.07;;;;;;;-148.88;79.38;-17125.47;4977246;28;20051;-85
2023/06/16 03:00:27;;;;;;;10.65;7.78;;;;;;;-148.88;79.95;-17125.47;4976362;28;20030;-86
2023/06/16 03:02:52;;;;;;;10.25;7.70;;;;;;;-148.88;80.01;-17125.47;4977371;28;20030;-86
2023/06/16 03:05:18;;;;;;;10.07;7.90;;;;;;;-148.88;80.62;-17125.47;4976825;28;20433;-86
2023/06/16 03:07:46;;;;;;;10.05;7.38;;;;;;;-148.88;80.57;-17125.47;4976837;28;20023;-86
2023/06/16 03:10:12;;;;;;;10.73;6.85;;;;;;;-148.88;80.45;-17125.47;4977254;28;20045;-85
2023/06/16 03:12:37;;;;;;;11.25;6.82;;;;;;;-148.88;81.12;-17125.47;4977833;28;20027;-85
2023/06/16 03:15:03;;;;;;;7.40;6.20;;;;;;;-148.88;81.96;-17125.47;4977185;28;20038;-84
2023/06/16 03:17:28;;;;;;;10.63;7.40;;;;;;;-148.88;82.47;-17125.47;4976100;28;20023;-85
2023/06/16 03:19:54;;;;;;;10.48;6.93;;;;;;;-148.88;83.78;-17125.47;4976753;28;20062;-85
2023/06/16 03:22:19;;;;;;;9.77;6.60;;;;;;;-148.88;83.30;-17125.47;4975517;28;20485;-85
2023/06/16 03:24:45;;;;;;;7.97;6.70;;;;;;;-148.88;83.30;-17125.47;4977288;28;20069;-86
2023/06/16 03:27:11;;;;;;;8.07;6.40;;;;;;;-148.88;83.45;-17125.47;4976623;28;20114;-85
2023/06/16 03:29:37;;;;;;;8.00;6.63;;;;;;;-148.88;84.85;-17125.47;4975180;28;20085;-86
2023/06/16 03:32:04;;;;;;;10.50;6.70;;;;;;;-148.88;84.83;-17125.47;4977094;28;20022;-85
2023/06/16 03:34:29;;;;;;;7.55;6.03;;;;;;;-148.88;83.72;-17125.47;4976702;28;20470;-85
2023/06/16 03:36:56;;;;;;;8.57;5.93;;;;;;;-148.88;83.06;-17125.47;4976762;28;20082;-85
2023/06/16 03:39:21;;;;;;;8.27;6.50;;;;;;;-148.88;84.10;-17125.47;4976585;28;20374;-85
2023/06/16 03:41:46;;;;;;;8.48;6.72;;;;;;;-148.88;82.19;-17125.47;4976405;28;20033;-85
2023/06/16 03:44:12;;;;;;;8.05;6.15;;;;;;;-148.88;83.28;-17125.47;4975172;28;20529;-85
2023/06/16 03:46:37;;;;;;;7.80;6.07;;;;;;;-148.88;82.68;-17125.47;4975886;28;20052;-83
2023/06/16 03:49:02;;;;;;;9.27;6.57;;;;;;;-148.88;84.05;-17125.47;4976634;28;20486;-84
2023/06/16 03:51:28;;;;;;;11.73;7.28;;;;;;;-148.88;82.17;-17125.47;4975330;28;20088;-84
2023/06/16 03:53:53;;;;;;;10.80;7.00;;;;;;;-148.88;83.45;-17125.47;4975467;28;20508;-84
2023/06/16 03:56:19;;;;;;;11.90;6.45;;;;;;;-148.88;83.04;-17125.47;4977061;28;20081;-83
2023/06/16 03:58:45;;;;;;;9.52;6.60;;;;;;;-148.88;82.67;-17125.47;4976777;28;20019;-84
2023/06/16 04:01:10;;;;;;;8.27;6.63;;;;;;;-148.88;82.05;-17125.47;4975597;28;20027;-83
2023/06/16 04:03:36;;;;;;;9.70;6.90;;;;;;;-148.88;81.63;-17125.47;4976300;28;20027;-84
2023/06/16 04:06:02;;;;;;;11.07;6.75;;;;;;;-148.88;82.29;-17125.47;4975470;28;20473;-84
2023/06/16 04:08:27;;;;;;;10.38;7.35;;;;;;;-148.88;82.10;-17125.47;4975032;28;20136;-84
2023/06/16 04:10:57;;;;;;;9.90;6.97;;;;;;;-148.88;81.61;-17125.47;4974137;28;20027;-84
2023/06/16 04:13:23;;;;;;;9.70;6.72;;;;;;;-148.88;81.56;-17125.47;4974239;28;20026;-85
2023/06/16 04:15:49;;;;;;;7.43;6.57;;;;;;;-148.88;81.22;-17125.47;4975251;28;20022;-85
2023/06/16 04:18:14;;;;;;;10.57;6.93;;;;;;;-148.88;81.28;-17125.47;4976454;28;20035;-86
2023/06/16 04:20:39;;;;;;;8.45;6.55;;;;;;;-148.88;81.78;-17125.47;4976295;28;20022;-86
2023/06/16 04:23:09;;;;;;;8.38;6.38;;;;;;;-148.88;81.14;-17125.47;4975873;28;20027;-85
2023/06/16 04:25:35;;;;;;;12.35;7.75;;;;;;;-148.88;81.99;-17125.47;4974077;28;20029;-86
2023/06/16 04:28:01;;;;;;;10.25;7.45;;;;;;;-148.88;82.93;-17125.47;4976521;28;20050;-86
2023/06/16 04:30:30;;;;;;;11.55;7.40;;;;;;;-148.88;81.22;-17125.47;4974362;28;20022;-85
2023/06/16 04:32:59;;;;;;;11.15;7.78;;;;;;;-148.88;81.21;-17125.47;4974510;28;20029;-86
2023/06/16 04:35:27;;;;;;;10.20;7.20;;;;;;;-148.88;81.52;-17125.47;4976010;28;20118;-85
2023/06/16 04:37:53;;;;;;;9.52;7.95;;;;;;;-148.88;81.90;-17125.47;4976690;28;20050;-84
2023/06/16 04:40:19;;;;;;;9.85;7.57;;;;;;;-148.88;81.49;-17125.47;4974659;28;20027;-85
2023/06/16 04:42:44;;;;;;;8.85;7.32;;;;;;;-148.88;81.24;-17125.47;4975366;28;20066;-84
2023/06/16 04:45:10;;;;;;;9.55;7.70;;;;;;;-148.88;81.90;-17125.47;4974269;28;20109;-85
2023/06/16 04:47:35;;;;;;;10.88;7.68;;;;;;;-148.88;81.58;-17125.47;4975663;28;20030;-83
2023/06/16 04:50:02;;;;;;;9.68;7.30;;;;;;;-148.88;81.82;-17125.47;4974887;28;20069;-83
2023/06/16 04:52:28;;;;;;;8.90;7.80;;;;;;;-148.88;81.55;-17125.47;4974366;28;20033;-83
2023/06/16 04:54:53;;;;;;;11.07;7.22;;;;;;;-148.88;82.01;-17125.47;4975154;28;20027;-83
2023/06/16 04:57:19;;;;;;;10.13;8.18;;;;;;;-148.88;82.67;-17125.47;4973323;28;20033;-83
2023/06/16 04:59:45;;;;;;;9.85;8.13;;;;;;;-148.88;82.47;-17125.47;4974728;28;20027;-83
2023/06/16 05:02:10;;;;;;;10.98;7.90;;;;;;;-148.88;81.31;-17125.47;4973932;28;20039;-84
2023/06/16 05:04:37;;;;;;;11.30;8.27;;;;;;;-148.88;81.97;-17125.47;4975766;28;20046;-84
2023/06/16 05:07:03;;;;;;;10.45;7.53;;;;;;;-148.88;82.76;-17125.47;4975438;28;20033;-84
2023/06/16 05:09:28;;;;;;;10.98;8.57;;;;;;;-148.88;81.71;-17125.47;4974571;28;20023;-84
2023/06/16 05:11:54;;;;;;;9.43;7.57;;;;;;;-148.88;81.66;-17125.47;4975074;28;20501;-84
2023/06/16 05:14:19;;;;;;;10.68;8.13;;;;;;;-148.88;82.29;-17125.47;4974801;28;20022;-87
2023/06/16 05:16:45;;;;;;;12.13;8.30;;;;;;;-148.88;81.98;-17125.47;4977734;28;20027;-85
2023/06/16 05:19:10;;;;;;;10.63;8.77;;;;;;;-148.88;83.48;-17125.47;4979316;28;20102;-84
2023/06/16 05:21:36;;;;;;;12.43;8.93;;;;;;;-148.88;82.60;-17125.47;4978176;28;20023;-83
2023/06/16 05:24:01;;;;;;;11.65;8.85;;;;;;;-148.88;83.00;-17125.47;4977677;28;20043;-83
2023/06/16 05:26:27;;;;;;;15.13;9.15;;;;;;;-148.88;82.86;-17125.47;4978622;28;20030;-83
2023/06/16 05:28:52;;;;;;;11.85;8.88;;;;;;;-148.88;83.06;-17125.47;4979871;28;20441;-83
2023/06/16 05:31:17;;;;;;;10.95;8.88;;;;;;;-148.88;82.84;-17125.47;4979725;28;20023;-83
2023/06/16 05:33:43;;;;;;;10.73;9.25;;;;;;;-148.88;82.63;-17125.47;4979836;28;20034;-82
2023/06/16 05:36:08;;;;;;;10.30;9.05;;;;;;;-148.88;83.82;-17125.47;4980288;28;20039;-82
2023/06/16 05:38:33;;;;;;;12.93;9.57;;;;;;;-148.88;85.00;-17125.47;4979597;28;20038;-82
2023/06/16 05:40:59;;;;;;;12.48;9.25;;;;;;;-148.88;83.71;-17125.47;4981547;28;20030;-84
2023/06/16 05:43:24;;;;;;;12.73;9.55;;;;;;;-148.88;83.36;-17125.47;4978388;28;20401;-83
2023/06/16 05:45:50;;;;;;;13.40;10.70;;;;;;;-148.88;84.60;-17125.47;4981009;28;20050;-84
2023/06/16 05:48:15;;;;;;;12.68;9.88;;;;;;;-148.88;87.88;-17125.47;4979254;28;20106;-82
2023/06/16 05:50:41;;;;;;;13.43;10.50;;;;;;;-148.88;87.92;-17125.47;4980148;28;20054;-82
2023/06/16 05:53:07;;;;;;;11.32;9.73;;;;;;;-148.88;87.89;-17125.47;4979705;28;20385;-82
2023/06/16 05:55:32;;;;;;;13.57;10.35;;;;;;;-148.88;85.86;-17125.47;4980856;28;20045;-83
2023/06/16 05:57:58;;;;;;;13.45;10.48;;;;;;;-148.88;86.10;-17125.47;4978796;28;20030;-82
2023/06/16 06:00:23;;;;;;;17.13;10.98;;;;;;;-148.88;85.10;-17125.47;4976218;28;20046;-82
2023/06/16 06:02:49;;;;;;;13.00;10.45;;;;;;;-148.88;84.41;-17125.47;4978034;28;20082;-82
2023/06/16 06:05:15;;;;;;;13.27;10.95;;;;;;;-148.88;84.03;-17125.47;4977827;28;20098;-82
2023/06/16 06:07:40;;;;;;;15.88;12.23;;;;;;;-148.88;83.96;-17125.47;4976594;28;20027;-83
2023/06/16 06:10:06;;;;;;;15.60;11.07;;;;;;;-148.88;84.30;-17125.47;4977894;28;20022;-83
2023/06/16 06:12:32;;;;;;;14.73;10.75;;;;;;;-148.88;82.83;-17125.47;4979194;28;20023;-83
2023/06/16 06:14:57;;;;;;;13.95;11.02;;;;;;;-148.88;83.50;-17125.47;4979242;28;20095;-83
2023/06/16 06:17:22;;;;;;;14.52;11.13;;;;;;;-148.88;83.08;-17125.47;4977039;28;20496;-82
2023/06/16 06:19:48;;;;;;;14.30;10.82;;;;;;;-148.88;83.43;-17125.47;4978749;28;20035;-82
2023/06/16 06:22:13;;;;;;;14.38;11.63;;;;;;;-148.88;83.35;-17125.47;4979252;28;20038;-83
2023/06/16 06:24:38;;;;;;;14.30;11.02;;;;;;;-148.88;83.49;-17125.47;4979851;28;20027;-83
2023/06/16 06:27:04;;;;;;;14.77;12.07;;;;;;;-148.88;84.50;-17125.47;4978140;28;20393;-83
2023/06/16 06:29:30;;;;;;;16.45;12.75;;;;;;;-148.88;84.57;-17125.47;4978493;28;20516;-84
2023/06/16 06:31:55;;;;;;;15.20;12.23;;;;;;;-148.88;83.79;-17125.47;4978600;28;20105;-83
2023/06/16 06:34:21;;;;;;;15.23;12.80;;;;;;;-148.88;84.55;-17125.47;4980249;28;20504;-83
2023/06/16 06:36:47;;;;;;;14.48;11.75;;;;;;;-148.88;85.29;-17125.47;4978406;28;20396;-83
2023/06/16 06:39:13;;;;;;;19.77;12.05;;;;;;;-148.88;85.34;-17125.47;4978025;28;20022;-83
2023/06/16 06:41:40;;;;;;;15.20;12.18;;;;;;;-148.88;86.30;-17125.47;4976781;28;20507;-84
2023/06/16 06:44:05;;;;;;;16.92;12.30;;;;;;;-148.88;86.39;-17125.47;4976965;28;20015;-83
2023/06/16 06:46:30;;;;;;;14.93;11.90;;;;;;;-148.88;84.12;-17125.47;4977456;28;20033;-82
2023/06/16 06:48:57;;;;;;;14.70;12.25;;;;;;;-148.88;85.27;-17125.47;4977369;28;20069;-82
2023/06/16 06:51:22;;;;;;;15.80;12.38;;;;;;;-148.88;85.86;-17125.47;4976274;28;20031;-82
2023/06/16 06:53:48;;;;;;;14.88;12.27;;;;;;;-148.88;85.07;-17125.47;4976187;28;20037;-83
2023/06/16 06:56:15;;;;;;;17.10;12.90;;;;;;;-148.88;86.22;-17125.47;4977272;28;20114;-82
2023/06/16 06:58:41;;;;;;;22.98;12.65;;;;;;;-148.88;87.00;-17125.47;4980160;28;20019;-83
2023/06/16 07:01:06;;;;;;;15.88;12.95;;;;;;;-148.88;87.07;-17125.47;4977789;28;20371;-82
2023/06/16 07:03:31;;;;;;;15.85;12.70;;;;;;;-148.88;86.50;-17125.47;4977817;28;20058;-83
2023/06/16 07:05:57;;;;;;;15.00;12.15;;;;;;;-148.88;86.62;-17125.47;4978293;28;20034;-84
2023/06/16 07:08:22;;;;;;;15.65;12.20;;;;;;;-148.88;85.81;-17125.47;4977023;28;20035;-84
2023/06/16 07:10:48;;;;;;;18.85;12.35;;;;;;;-148.88;86.90;-17125.47;4978519;28;20029;-83
2023/06/16 07:13:13;;;;;;;15.85;12.73;;;;;;;-148.88;84.60;-17125.47;4976025;28;20065;-83
2023/06/16 07:15:38;;;;;;;14.27;12.77;;;;;;;-148.88;84.98;-17125.47;4976102;28;20496;-82
2023/06/16 07:18:04;;;;;;;16.20;11.90;;;;;;;-148.88;85.66;-17125.47;4975403;28;20026;-82
2023/06/16 07:20:29;;;;;;;14.90;12.68;;;;;;;-148.88;83.82;-17125.47;4978029;28;20081;-84
2023/06/16 07:22:55;;;;;;;14.10;11.93;;;;;;;-148.88;83.55;-17125.47;4974647;28;20057;-84
2023/06/16 07:25:20;;;;;;;14.60;12.38;;;;;;;-148.88;84.23;-17125.47;4975920;28;20065;-84
2023/06/16 07:27:45;;;;;;;15.85;12.73;;;;;;;-148.88;85.03;-17125.47;4975848;28;20050;-86
2023/06/16 07:30:11;;;;;;;16.48;13.57;;;;;;;-148.88;84.53;-17125.47;4976065;28;20504;-85
2023/06/16 07:32:39;;;;;;;16.10;12.93;;;;;;;-148.88;84.14;-17125.47;4978392;28;20113;-82
2023/06/16 07:35:06;;;;;;;13.85;12.38;;;;;;;-148.88;83.74;-17125.47;4977020;28;20497;-84
2023/06/16 07:37:32;;;;;;;17.15;12.65;;;;;;;-148.88;82.64;-17125.47;4976797;28;20063;-84
2023/06/16 07:39:58;;;;;;;14.60;12.18;;;;;;;-148.88;83.15;-17125.47;4976422;28;20047;-83
2023/06/16 07:42:23;;;;;;;14.52;12.52;;;;;;;-148.88;82.07;-17125.47;4978359;28;20509;-84
2023/06/16 07:44:49;;;;;;;16.45;12.48;;;;;;;-148.88;81.60;-17125.47;4976597;28;20022;-87
2023/06/16 07:47:14;;;;;;;15.20;12.77;;;;;;;-148.88;81.98;-17125.47;4976006;28;20031;-85
2023/06/16 07:49:39;;;;;;;18.40;13.35;;;;;;;-148.88;80.81;-17125.47;4978414;28;20110;-87
2023/06/16 07:52:05;;;;;;;15.50;13.10;;;;;;;-148.88;81.73;-17125.47;4977071;28;20074;-84
2023/06/16 07:54:31;;;;;;;14.95;12.52;;;;;;;-148.88;80.30;-17125.47;4976596;28;20031;-85
2023/06/16 07:56:56;;;;;;;14.20;12.50;;;;;;;-148.88;79.72;-17125.47;4975623;28;20053;-85
2023/06/16 07:59:28;;;;;;;14.00;12.50;;;;;;;-148.88;79.40;-17125.47;5071255;28;20379;-72
2023/06/16 08:01:53;;;;;;;17.08;11.88;;;;;;;-148.88;80.64;-17125.47;5070325;28;20030;-72
2023/06/16 08:04:18;;;;;;;11.55;9.70;;;;;;;-148.88;77.69;-17125.47;5070508;28;20044;-72
2023/06/16 08:06:44;;;;;;;12.95;10.00;;;;;;;-148.88;74.18;-17125.47;5067053;28;20082;-73
2023/06/16 08:09:10;;;;;;;13.75;11.30;;;;;;;-148.88;77.70;-17125.47;5070014;28;20052;-72
2023/06/16 08:11:35;;;;;;;13.65;10.63;;;;;;;-148.88;74.56;-17125.47;5070015;28;20023;-72
2023/06/16 08:14:01;;;;;;;10.55;9.45;;;;;;;-148.88;71.92;-17125.47;5069747;28;20047;-72
2023/06/16 08:16:26;;;;;;;11.90;10.68;;;;;;;-148.88;75.16;-17125.47;5069786;28;20080;-72
2023/06/16 08:18:55;;;;;;;13.45;10.15;;;;;;;-148.88;72.11;-17125.47;5069831;28;20111;-73
2023/06/16 08:21:20;;;;;;;10.85;6.90;;;;;;;-148.88;66.12;-17125.47;5069692;28;20120;-72
2023/06/16 08:23:47;;;;;;;6.82;5.93;;;;;;;-148.88;63.35;-17125.47;5069750;28;20107;-72
2023/06/16 08:26:12;;;;;;;6.90;5.65;;;;;;;-148.88;65.11;-17125.47;5068234;28;20116;-72
2023/06/16 08:28:41;;;;;;;8.35;6.78;;;;;;;-148.88;66.79;-17125.47;5069678;28;20041;-72
2023/06/16 08:31:06;;;;;;;8.23;7.15;;;;;;;-148.88;63.33;-17125.47;5068554;28;20039;-72
2023/06/16 08:33:32;;;;;;;9.32;7.95;;;;;;;-148.88;63.90;-17125.47;5069392;28;20029;-72
2023/06/16 08:35:57;;;;;;;7.97;7.18;;;;;;;-148.88;62.33;-17125.47;5069392;28;20029;-72
2023/06/16 08:38:23;;;;;;;10.43;6.93;;;;;;;-148.88;61.63;-17125.47;5069279;28;20020;-72
2023/06/16 08:40:48;;;;;;;10.00;8.20;;;;;;;-148.88;61.86;-17125.47;5069418;28;20028;-73
2023/06/16 08:43:15;;;;;;;9.85;7.28;;;;;;;-148.88;61.27;-17125.47;5069218;28;20021;-72
2023/06/16 08:45:40;;;;;;;11.30;7.82;;;;;;;-148.88;61.90;-17125.47;5069139;28;20112;-72
2023/06/16 08:48:05;;;;;;;9.48;7.70;;;;;;;-148.88;61.24;-17125.47;5069088;28;20019;-72
2023/06/16 08:50:32;;;;;;;8.80;7.15;;;;;;;-148.88;61.26;-17125.47;5068992;28;20035;-72
2023/06/16 08:52:58;;;;;;;11.07;8.20;;;;;;;-148.88;63.28;-17125.47;5069442;28;20020;-72
2023/06/16 08:55:25;;;;;;;10.60;8.43;;;;;;;-148.88;63.97;-17125.47;5066976;28;20028;-72
2023/06/16 08:57:52;;;;;;;9.55;8.55;;;;;;;-148.88;62.83;-17125.47;5068963;28;20032;-72
2023/06/16 09:00:18;;;;;;;8.63;7.72;;;;;;;-148.88;62.66;-17125.47;5069151;28;20467;-73
2023/06/16 09:02:48;;;;;;;9.27;7.78;;;;;;;-148.88;63.30;-17125.47;5068738;28;20017;-72
2023/06/16 09:05:15;;;;;;;10.35;7.78;;;;;;;-148.88;62.24;-17125.47;5067360;28;20051;-72
2023/06/16 09:07:41;;;;;;;7.25;6.55;;;;;;;-148.88;60.76;-17125.47;5068993;28;20029;-72
2023/06/16 09:10:10;;;;;;;8.77;6.38;;;;;;;-148.88;57.87;-17125.47;5058207;28;20476;-72
2023/06/16 09:12:36;;;;;;;6.53;5.82;;;;;;;-148.88;56.56;-17125.47;5055396;28;20100;-72
2023/06/16 09:15:01;;;;;;;7.57;6.32;;;;;;;-148.88;54.70;-17125.47;5055638;28;20120;-72
2023/06/16 09:17:30;;;;;;;5.50;4.70;;;;;;;-148.88;50.83;-17125.47;5055493;28;20054;-72
2023/06/16 09:19:56;;;;;;;6.97;5.55;;;;;;;-148.88;50.27;-17125.47;5055529;28;20025;-72
2023/06/16 09:22:26;;;;;;;7.05;5.22;;;;;;;-148.88;52.06;-17125.47;5055561;28;20137;-72
2023/06/16 09:24:59;;;;;;;5.55;4.85;;;;;;;-148.88;53.99;-17125.47;5054200;28;20106;-72
2023/06/16 09:27:43;;;;;;;7.78;4.93;;;;;;;-148.88;54.29;-17125.47;5055470;28;20047;-73
2023/06/16 09:30:10;;;;;;;5.85;5.07;;;;;;;-148.88;53.83;-17125.47;5053297;28;20013;-72
2023/06/16 09:32:39;;;;;;;5.90;5.25;;;;;;;-148.88;52.02;-17125.47;5055189;28;20491;-72
2023/06/16 09:35:28;;;;;;;9.80;6.38;;;;;;;-148.88;52.62;-17125.47;5055252;28;20025;-72
2023/06/16 09:38:00;;;;;;;6.68;5.55;;;;;;;-148.88;50.99;-17125.47;5053495;28;20021;-73
2023/06/16 09:40:33;;;;;;;6.68;4.72;;;;;;;-148.88;46.84;-17125.47;5055263;28;20024;-73
2023/06/16 09:43:00;;;;;;;5.32;4.78;;;;;;;-148.88;50.30;-17125.47;5055153;28;20100;-74
2023/06/16 09:45:32;;;;;;;5.03;4.20;;;;;;;-148.88;50.59;-17125.47;5054894;28;20104;-74
2023/06/16 09:48:02;;;;;;;6.88;4.82;;;;;;;-148.88;53.23;-17125.47;5055296;28;20100;-73
2023/06/16 09:50:30;;;;;;;6.63;4.80;;;;;;;-148.88;51.82;-17125.47;5054990;28;20502;-73
2023/06/16 09:53:00;;;;;;;6.45;4.50;;;;;;;-148.88;47.55;-17125.47;5054986;28;20021;-75
2023/06/16 09:55:28;;;;;;;6.57;5.10;;;;;;;-148.88;47.36;-17125.47;5053553;28;20020;-75
2023/06/16 09:57:54;;;;;;;6.10;4.88;;;;;;;-148.88;50.82;-17125.47;5054785;28;20060;-74
2023/06/16 10:00:20;;;;;;;5.97;5.22;;;;;;;-148.88;51.61;-17125.47;5055329;28;20056;-74
2023/06/16 10:02:46;;;;;;;7.93;5.40;;;;;;;-148.88;53.89;-17125.47;5054798;28;20063;-75
2023/06/16 10:05:17;;;;;;;6.22;5.10;;;;;;;-148.88;49.69;-17125.47;5051511;28;20028;-73
2023/06/16 10:07:46;;;;;;;6.32;4.88;;;;;;;-148.88;48.16;-17125.47;5054331;28;20013;-74
2023/06/16 10:10:12;;;;;;;5.25;4.53;;;;;;;-148.88;53.75;-17125.47;5054865;28;20082;-74
2023/06/16 10:12:43;;;;;;;6.15;4.95;;;;;;;-148.88;53.60;-17125.47;5054848;28;20104;-74
2023/06/16 10:15:11;;;;;;;7.97;5.30;;;;;;;-148.88;53.89;-17125.47;5054584;28;20036;-74
2023/06/16 10:17:37;;;;;;;5.50;4.70;;;;;;;-148.88;51.82;-17125.47;5054491;28;20143;-74
2023/06/16 10:20:09;;;;;;;7.60;5.32;;;;;;;-148.88;53.90;-17125.47;5054305;28;20033;-74
2023/06/16 10:22:34;;;;;;;6.57;5.03;;;;;;;-148.88;53.81;-17125.47;5053666;28;20070;-74
2023/06/16 10:25:01;;;;;;;6.63;5.20;;;;;;;-148.88;50.20;-17125.47;5054178;28;20108;-74
2023/06/16 10:27:27;;;;;;;7.60;5.90;;;;;;;-148.88;52.72;-17125.47;5054192;28;20013;-74
2023/06/16 10:29:54;;;;;;;7.20;5.13;;;;;;;-148.88;48.68;-17125.47;5054144;28;20411;-74
2023/06/16 10:32:19;;;;;;;7.38;4.70;;;;;;;-148.88;46.45;-17125.47;5054130;28;20032;-73
2023/06/16 10:34:49;;;;;;;6.95;5.30;;;;;;;-148.88;48.40;-17125.47;5054363;28;20025;-73
2023/06/16 10:37:15;;;;;;;6.00;4.80;;;;;;;-148.88;46.92;-17125.47;5053937;28;20024;-74
2023/06/16 10:39:42;;;;;;;7.90;4.90;;;;;;;-148.88;48.19;-17125.47;5054314;28;20036;-74
2023/06/16 10:42:11;;;;;;;6.43;4.53;;;;;;;-148.88;46.60;-17125.47;5061998;22;20090;-86
2023/06/16 10:44:37;;;;;;;5.00;4.50;;;;;;;-148.88;47.67;-17125.47;5054531;28;20033;-85
2023/06/16 10:47:08;;;;;;;8.32;4.40;;;;;;;-148.88;45.31;-17125.47;5054767;28;20048;-86
2023/06/16 10:49:46;;;;;;;5.45;4.68;;;;;;;-148.88;45.71;-17125.47;5054909;28;20025;-84
2023/06/16 10:52:38;;;;;;;8.98;4.68;;;;;;;-148.88;44.41;-17125.47;5054886;28;20021;-83
2023/06/16 10:55:27;;;;;;;7.03;4.63;;;;;;;-148.88;43.29;-17125.47;5047985;22;20045;-85
2023/06/16 10:58:19;;;;;;;5.60;4.38;;;;;;;-148.88;43.17;-17125.47;5018598;28;20025;-85
2023/06/16 11:01:05;;;;;;;5.63;4.10;;;;;;;-148.88;42.85;-17125.47;5035519;28;20083;-87
2023/06/16 11:03:45;;;;;;;6.88;4.53;;;;;;;-148.88;41.77;-17125.47;5017403;28;20021;-86